Enter the Airport ICAO Code

Search by Airport or City

Current Weather

KMFE | McAllen Miller International Airport

McAllen, Texas, United States

Last Update 1 Hour Ago

Clear Sky at Low Altitude

Temperature of 31 ºC

Moderate Winds from SouthEast

Temperature

31 ºC

Dew Point Temperature

24 ºC

Relative Humidity

66.54 %

Wind Direction

SouthEast (150º, Without Significant Variations)

Wind Velocity

26 km/h (14 kt)

Gusts

None

Visibility

Greater than 10 Miles

Sea Level Pressure

29.95 inHg (Inches of Mercury)

Layers of Clouds

None

METAR KMFE 121453Z 15014KT 10SM CLR 31/24 A2995

Weather Forecast

KMFE | McAllen Miller International Airport

McAllen, Texas, United States

Forecast valid for the next 20 Hours

From now on it is expected:

Sky with Few Clouds

Moderate Winds from SouthEast with Gusts

In 11 hours it is expected the begining of:

Clear Sky

Light to Moderate Winds from SouthEast

Maximum Temperature

No Data

Minimum Temperature

No Data

TAF KMFE 121126Z 1212/1312 14008KT P6SM SKC FM121500 15012G18KT P6SM FEW040 FM130300 15008KT P6SM SKC